Tiempo atmosférico en la estación meteorológica de Cáseda, Navarra (440 m.)



Fecha
DESCASC
Temp. máxima en grados centígrados (hora)
DESCASC
Temp. mínima en grados centígrados (hora)
DESCASC
Temp. media en grados centígrados
DESCASC
Racha de viento máxima en m/sg (hora)
DESCASC
Velocidad máxima media en intervalos de 10 minutos(hora)
DESCASC
Precipitaciones diarias en mm
DESCASC
Precipitaciones de 00:00 a 06:00 en mm
DESCASC
Precipitaciones de 06:00 a 12:00 en mm
DESCASC
Precipitaciones de 12:00 a 18:00 en mm
DESCASC
Precipitaciones de 18:00 a 24:00 en mm
DESCASC
25-04-2019 -- (--) -- (--) -- -- (--) -- (--) -- 9 0 -- --
24-04-2019 12 (18:50) 4.9 (07:40) 8.5 16.39 (19:10) 8.89 (19:20) 15.6 1.4 0 1.6 12.6
23-04-2019 19.7 (13:00) 8.3 (07:20) 14 14.17 (16:00) 8.33 (15:00) 7 0 0 3 4
22-04-2019 18.7 (16:10) 6.8 (00:00) 12.8 7.5 (19:30) 5 (19:10) 0 0 0 0 0
21-04-2019 14.2 (18:40) 8.9 (00:00) 11.5 9.17 (00:30) 5.83 (00:40) 0.2 0 0 0.2 0
20-04-2019 23.7 (16:30) 6.9 (00:00) 15.3 8.89 (19:20) 5.83 (18:40) 0.8 0 0 0 0.8
19-04-2019 21.6 (16:30) 10.7 (00:00) 16.2 10.83 (05:30) 8.33 (05:30) 0.2 0.2 0 0 0
18-04-2019 20.4 (15:00) 8.9 (00:00) 14.6 14.72 (16:40) 8.61 (14:30) 0 0 0 0 0
17-04-2019 22.2 (16:30) 9.3 (00:00) 15.8 12.5 (12:20) 7.22 (16:00) 0 0 0 0 0
16-04-2019 20.5 (17:00) 7.9 (00:00) 14.2 6.94 (00:30) 4.17 (00:30) 1.4 1.4 0 0 0
15-04-2019 23.3 (15:10) 7.6 (00:00) 15.4 11.67 (18:10) 5.83 (18:10) 7.8 0 0 0 7.8
14-04-2019 22.9 (15:30) 4.5 (00:00) 13.7 9.72 (14:00) 6.11 (14:00) 0 0 0 0 0
13-04-2019 22.5 (17:20) -0.3 (00:00) 11.1 5.83 (18:30) 3.33 (18:00) 0 0 0 0 0
12-04-2019 16.3 (15:10) 7.5 (00:00) 11.9 13.06 (13:00) 7.5 (14:00) 0 0 0 0 0
11-04-2019 12.9 (14:30) 6.7 (00:00) 9.8 11.11 (13:30) 6.39 (15:10) 0 0 0 0 0
10-04-2019 -- (--) -- (--) -- -- (--) -- (--) -- -- -- 0 0
09-04-2019 -- (--) -- (--) -- -- (--) -- (--) -- 0 0 -- --
08-04-2019 15 (16:30) 5.9 (00:00) 10.5 7.22 (18:30) 3.61 (18:20) 1.6 0.2 1.4 0 0
07-04-2019 14.1 (17:40) 5 (00:00) 9.6 6.67 (10:00) 4.17 (10:10) 3 3 0 0 0
06-04-2019 13.6 (16:30) 3.3 (00:00) 8.5 11.39 (17:40) 6.94 (20:40) 0 0 0 0 0
05-04-2019 11.9 (16:20) 4.5 (00:00) 8.2 10.83 (14:30) 6.67 (14:30) 7.6 0 1 0.2 6.4
04-04-2019 13.7 (17:30) -1.7 (-00:0) 6 7.5 (16:50) 4.17 (16:50) 0 0 0 0 0
03-04-2019 10.3 (14:20) 2.5 (00:00) 6.4 11.67 (16:40) 6.11 (16:30) 1.8 1.6 0.2 0 0
02-04-2019 18.3 (17:00) 6.1 (00:00) 12.2 7.78 (16:30) 4.72 (19:00) 0 0 0 0 0
01-04-2019 14.4 (18:10) 7.5 (00:00) 10.9 5.83 (02:30) 3.33 (22:40) 4.2 3.6 0.4 0.2 0
31-03-2019 16.8 (13:40) 1.9 (00:00) 9.3 9.17 (16:10) 6.39 (18:20) 0 0 0 0 0
30-03-2019 19.6 (15:50) 2.3 (00:00) 11 10.28 (11:40) 6.39 (12:00) 0 0 0 0 0
29-03-2019 19.2 (15:30) 1.6 (00:00) 10.4 11.67 (12:30) 7.22 (12:20) 0 0 0 0 0
28-03-2019 19.9 (15:50) 1.1 (00:00) 10.5 6.39 (18:00) 3.89 (18:00) 0 0 0 0 0
27-03-2019 19.6 (14:20) -0.5 (-00:0) 9.6 13.61 (16:50) 7.78 (15:50) 0 0 0 0 0

Gráficas

Temp. máximas Temp. mínimas Temp. medias Precipitaciones Rachas de viento máximas Velocidades máximas media en intervalos de 10 minutos

Datos horarios

Fecha y hora oficial Temperatura (ºC) Velocidad del viento (km/h) Dirección del viento Racha (km/h) Dirección de racha Precipitación (mm) Presión (hPa) Tendencia (hPa) Humedad (%)
2019-04-25 23:00:00 -- -- -- -- -- -- -- -- --
2019-04-25 22:00:00 -- -- -- -- -- -- -- -- --
2019-04-25 21:00:00 -- -- -- -- -- -- -- -- --
2019-04-25 20:00:00 -- -- -- -- -- -- -- -- --
2019-04-25 19:00:00 -- -- -- -- -- -- -- -- --
2019-04-25 18:00:00 -- -- -- -- -- -- -- -- --
2019-04-25 17:00:00 -- -- -- -- -- -- -- -- --
2019-04-25 16:00:00 -- -- -- -- -- -- -- -- --
2019-04-25 15:00:00 14.7 23 Sur 40 Sudeste 0 -- -- 52
2019-04-25 14:00:00 14.8 23 Sur 41 Sur 0 -- -- 57
2019-04-25 13:00:00 13.7 26 Sur 45 Sur 0 -- -- 58
2019-04-25 12:00:00 13.3 22 Sur 49 Sudoeste 0 -- -- 61
2019-04-25 11:00:00 11.5 20 Sur 37 Sur 0 -- -- 70
2019-04-25 10:00:00 11.6 23 Sur 33 Sur 0 -- -- 70
2019-04-25 09:00:00 10.5 18 Sur 27 Sur 0 -- -- 81
2019-04-25 08:00:00 8.1 15 Sur 22 Sur 0 -- -- 91
2019-04-25 07:00:00 8.9 13 Sudoeste 39 Sur 0 -- -- 89
2019-04-25 06:00:00 9.9 21 Sur 38 Sur 0.4 -- -- 90
2019-04-25 05:00:00 10.3 20 Sur 41 Sur 5.6 -- -- 92
2019-04-25 04:00:00 10.9 24 Oeste 44 Sur 2.6 -- -- 89
2019-04-25 03:00:00 12 23 Sur 46 Sudeste 0.4 -- -- 80
2019-04-25 02:00:00 11.7 23 Sudeste 41 Sudeste 0 -- -- 81
2019-04-25 01:00:00 10.9 23 Sudeste 48 Sudeste 0 -- -- 82
2019-04-25 00:00:00 10.7 26 Sur 44 Sudeste 0 -- -- 82
2019-04-24 23:00:00 10.7 22 Sur 42 Sudoeste 1.6 -- -- 90
2019-04-24 22:00:00 10.3 19 Oeste 48 Sudeste 7.8 -- -- 88
2019-04-24 21:00:00 10.9 26 Sudeste 50 Sudeste 2.6 -- -- 82
2019-04-24 20:00:00 10.9 27 Sudeste 59 Sudeste 0.6 -- -- 78
2019-04-24 19:00:00 11.6 26 Sudeste 56 Sudeste 0 -- -- 71
2019-04-24 18:00:00 11.6 18 Sudeste 45 Sudeste 0 -- -- 67
2019-04-24 17:00:00 10.9 21 Sudeste 49 Sudeste 0 -- -- 70
2019-04-24 16:00:00 10.1 12 Sudeste 33 Sudeste 0 -- -- 71
2019-04-24 15:00:00 9.7 19 Sudeste 47 Sudeste 0 -- -- 69
2019-04-24 14:00:00 10 28 Sudeste 46 Sudeste 0.4 -- -- 72
2019-04-24 13:00:00 8 18 Sudeste 39 Sur 1.2 -- -- 80
2019-04-24 12:00:00 9 20 Sur 36 Sur 0 -- -- 71
2019-04-24 11:00:00 9.4 18 Sur 33 Sur 0 -- -- 73
2019-04-24 10:00:00 8.9 21 Sur 39 Sur 0 -- -- 78
2019-04-24 09:00:00 8.8 21 Sur 33 Sur 0 -- -- 79
2019-04-24 08:00:00 5.2 0 Calma 9 Oeste 0 -- -- 94
2019-04-24 07:00:00 5.6 4 Oeste 10 Oeste 0 -- -- 93
2019-04-24 06:00:00 6.4 3 Oeste 6 Noroeste 0 -- -- 92
2019-04-24 05:00:00 6.7 3 Oeste 19 Sur 0.2 -- -- 89
2019-04-24 04:00:00 7.1 15 Sur 27 Sur 1.2 -- -- 89
2019-04-24 03:00:00 7.8 10 Sur 28 Sur 0 -- -- 83
2019-04-24 02:00:00 7.9 16 Sur 27 Sur 0 -- -- 82
2019-04-24 01:00:00 8.2 4 Oeste 15 Sur 0 -- -- 85
2019-04-24 00:00:00 8.8 5 Nordeste 13 Sur 0.2 -- -- 90
2019-04-23 23:00:00 9.1 8 Sur 14 Sur 0.2 -- -- 87
2019-04-23 22:00:00 9.6 5 Sudeste 14 Sur 0 -- -- 90
2019-04-23 21:00:00 9.9 13 Sur 32 Sudoeste 1 -- -- 90
2019-04-23 20:00:00 10.7 21 Sudoeste 39 Oeste 2.4 -- -- 84
2019-04-23 19:00:00 12.9 2 Oeste 14 Este 0.2 -- -- 82
2019-04-23 18:00:00 13.2 5 Nordeste 21 Sudeste 0 -- -- 81
2019-04-23 17:00:00 12.2 19 Sudeste 42 Sudoeste 1.8 -- -- 81
2019-04-23 16:00:00 15.5 26 Sudoeste 51 Sudoeste 1.2 -- -- 67
2019-04-23 15:00:00 18 30 Sur 47 Sur 0 -- -- 54
2019-04-23 14:00:00 18 24 Sur 41 Sur 0 -- -- 53
2019-04-23 13:00:00 19.7 20 Sur 34 Sur 0 -- -- 50
2019-04-23 12:00:00 18.1 14 Sur 30 Sur 0 -- -- 55
2019-04-23 11:00:00 15.6 4 Nordeste 9 Este 0 -- -- 71
2019-04-23 10:00:00 11.8 2 Nordeste 5 Sudoeste 0 -- -- 80
2019-04-23 09:00:00 10.1 2 Este 7 Este 0 -- -- 85
2019-04-23 08:00:00 8.5 2 Sudeste 5 Sudeste 0 -- -- 88
2019-04-23 07:00:00 8.5 4 Sur 7 Sur 0 -- -- 86
2019-04-23 06:00:00 9 0 Calma 5 Nordeste 0 -- -- 85
2019-04-23 05:00:00 9.4 3 Este 9 Sur 0 -- -- 83
2019-04-23 04:00:00 10 0 Calma 7 Sur 0 -- -- 81
2019-04-23 03:00:00 10.5 4 Oeste 9 Oeste 0 -- -- 81
2019-04-23 02:00:00 11.1 5 Oeste 8 Sudoeste 0 -- -- 79
2019-04-23 01:00:00 11.9 5 Sudoeste 8 Sudoeste 0 -- -- 74
2019-04-23 00:00:00 12.9 3 Noroeste 8 Este 0 -- -- 69
2019-04-22 23:00:00 13.9 5 Este 10 Este 0 -- -- 63
2019-04-22 22:00:00 14.4 5 Sudeste 14 Sur 0 -- -- 60
2019-04-22 21:00:00 14.8 10 Sur 25 Sur 0 -- -- 56
2019-04-22 20:00:00 15.6 15 Sur 27 Sur 0 -- -- 50
2019-04-22 19:00:00 17.7 15 Sur 26 Sur 0 -- -- 48
2019-04-22 18:00:00 18 14 Sur 22 Sur 0 -- -- 47
2019-04-22 17:00:00 18.4 9 Oeste 21 Oeste 0 -- -- 45
2019-04-22 16:00:00 18.1 9 Sudoeste 21 Sur 0 -- -- 48
2019-04-22 15:00:00 17.3 14 Sur 24 Sur 0 -- -- 49
2019-04-22 14:00:00 17.3 6 Nordeste 12 Este 0 -- -- 53
2019-04-22 13:00:00 15.8 5 Nordeste 10 Nordeste 0 -- -- 67
2019-04-22 12:00:00 13.1 4 Nordeste 8 Noroeste 0 -- -- 76
2019-04-22 11:00:00 11.4 4 Norte 8 Nordeste 0 -- -- 81
2019-04-22 10:00:00 9.3 2 Norte 4 Nordeste 0 -- -- 88
2019-04-22 09:00:00 7.7 0 Calma 4 Este 0 -- -- 92
2019-04-22 08:00:00 6.8 0 Calma 8 Sudeste 0 -- -- 91
2019-04-22 07:00:00 7.1 3 Sur 5 Sur 0 -- -- 92
2019-04-22 06:00:00 7.8 0 Calma 6 Sudeste 0 -- -- 88
2019-04-22 05:00:00 8.5 5 Este 7 Sudeste 0 -- -- 86
2019-04-22 04:00:00 9.3 0 Calma 6 Este 0 -- -- 85
2019-04-22 03:00:00 9.9 5 Sudeste 10 Este 0 -- -- 81
2019-04-22 02:00:00 10.4 5 Sudeste 8 Sudeste 0 -- -- 77
2019-04-22 01:00:00 11.2 6 Sudeste 8 Sudeste 0 -- -- 75
2019-04-22 00:00:00 11.5 0 Calma 5 Sudoeste 0 -- -- 74
2019-04-21 23:00:00 12.2 2 Oeste 5 Noroeste 0 -- -- 71
2019-04-21 22:00:00 12.6 3 Noroeste 7 Oeste 0 -- -- 69
2019-04-21 21:00:00 13 4 Oeste 13 Noroeste 0 -- -- 67
2019-04-21 20:00:00 13.6 7 Oeste 11 Noroeste 0 -- -- 63
2019-04-21 19:00:00 14.2 2 Noroeste 6 Noroeste 0 -- -- 63
2019-04-21 18:00:00 14.1 2 Norte 6 Norte 0 -- -- 65
2019-04-21 17:00:00 13.9 3 Nordeste 7 Este 0 -- -- 67
2019-04-21 16:00:00 13.5 0 Calma 8 Este 0 -- -- 68
2019-04-21 15:00:00 13 4 Este 12 Este 0.2 -- -- 70
2019-04-21 14:00:00 12.7 6 Este 17 Este 0 -- -- 70
2019-04-21 13:00:00 12.7 11 Este 19 Este 0 -- -- 71
2019-04-21 12:00:00 11.7 6 Este 16 Este 0 -- -- 78
2019-04-21 11:00:00 10.7 9 Este 15 Este 0 -- -- 83
2019-04-21 10:00:00 9.5 6 Este 12 Este 0 -- -- 87
2019-04-21 09:00:00 9 4 Sudeste 9 Sudeste 0 -- -- 91
2019-04-21 08:00:00 8.9 3 Sudoeste 10 Noroeste 0 -- -- 90
2019-04-21 07:00:00 9.3 6 Sur 10 Sur 0 -- -- 85
2019-04-21 06:00:00 9.4 8 Sur 9 Sur 0 -- -- 84
2019-04-21 05:00:00 9.7 3 Sudoeste 8 Sudoeste 0 -- -- 81
2019-04-21 04:00:00 9.9 4 Oeste 14 Oeste 0 -- -- 78
2019-04-21 03:00:00 10.1 5 Oeste 18 Oeste 0 -- -- 76
2019-04-21 02:00:00 10.6 3 Oeste 30 Sudoeste 0 -- -- 75
2019-04-21 01:00:00 10.7 18 Sur 33 Sudoeste 0 -- -- 76
2019-04-21 00:00:00 11.2 15 Sur 31 Sur 0.2 -- -- 77
2019-04-20 23:00:00 11.7 17 Sur 27 Sur 0.4 -- -- 77
2019-04-20 22:00:00 13.8 3 Nordeste 31 Este 0.2 -- -- 80
2019-04-20 21:00:00 17.1 12 Sudeste 29 Sur 0 -- -- 57
2019-04-20 20:00:00 18.8 20 Sur 32 Sur 0 -- -- 40
2019-04-20 19:00:00 21.1 19 Sur 30 Sur 0 -- -- 33
2019-04-20 18:00:00 20.5 15 Sur 28 Sur 0 -- -- 36
2019-04-20 17:00:00 22.6 17 Sudoeste 28 Sur 0 -- -- 34
2019-04-20 16:00:00 23.1 14 Sur 26 Sur 0 -- -- 33
2019-04-20 15:00:00 21.9 7 Nordeste 14 Nordeste 0 -- -- 39
2019-04-20 14:00:00 21 6 Nordeste 13 Nordeste 0 -- -- 40
2019-04-20 13:00:00 19.7 6 Nordeste 14 Nordeste 0 -- -- 38
2019-04-20 12:00:00 16.3 3 Este 10 Este 0 -- -- 48
2019-04-20 11:00:00 13.6 5 Nordeste 9 Nordeste 0 -- -- 69
2019-04-20 10:00:00 11.2 2 Nordeste 6 Nordeste 0 -- -- 73
2019-04-20 09:00:00 9.1 2 Nordeste 5 Sudoeste 0 -- -- 82
2019-04-20 08:00:00 7.2 4 Oeste 6 Oeste 0 -- -- 83
2019-04-20 07:00:00 7 4 Sur 8 Sudeste 0 -- -- 82
2019-04-20 06:00:00 7.5 3 Este 6 Sur 0 -- -- 78
2019-04-20 05:00:00 8.4 2 Nordeste 4 Sudoeste 0 -- -- 74
2019-04-20 04:00:00 9.5 0 Calma 7 Sudeste 0 -- -- 72
2019-04-20 03:00:00 9.6 4 Sudeste 6 Sur 0 -- -- 71
2019-04-20 02:00:00 10.8 3 Sur 7 Sudeste 0 -- -- 69
2019-04-20 01:00:00 12.1 3 Este 8 Sur 0 -- -- 59
2019-04-20 00:00:00 13.3 4 Oeste 9 Sudoeste 0 -- -- 59
2019-04-19 23:00:00 14.9 5 Oeste 8 Sudoeste 0 -- -- 58
2019-04-19 22:00:00 16.7 4 Nordeste 24 Sur 0 -- -- 47
2019-04-19 21:00:00 17.5 14 Sur 21 Sur 0 -- -- 44
2019-04-19 20:00:00 18.8 12 Sur 18 Sudoeste 0 -- -- 43
2019-04-19 19:00:00 20.3 9 Sur 19 Sur 0 -- -- 42
2019-04-19 18:00:00 20.5 7 Oeste 19 Noroeste 0 -- -- 46
2019-04-19 17:00:00 21.3 4 Noroeste 12 Norte 0 -- -- 42
2019-04-19 16:00:00 20.8 4 Nordeste 9 Norte 0 -- -- 42
2019-04-19 15:00:00 19.4 4 Norte 13 Nordeste 0 -- -- 42
2019-04-19 14:00:00 18.6 6 Nordeste 12 Nordeste 0 -- -- 48
2019-04-19 13:00:00 16.6 3 Norte 10 Este 0 -- -- 57
2019-04-19 12:00:00 15.7 5 Norte 8 Norte 0 -- -- 61
2019-04-19 11:00:00 14.1 2 Norte 6 Nordeste 0 -- -- 65
2019-04-19 10:00:00 12.8 4 Nordeste 8 Este 0 -- -- 73
2019-04-19 09:00:00 11.4 3 Sur 9 Sudeste 0 -- -- 75
2019-04-19 08:00:00 10.9 4 Este 7 Sur 0 -- -- 74
2019-04-19 07:00:00 10.8 2 Oeste 14 Oeste 0 -- -- 75
2019-04-19 06:00:00 11.2 6 Sur 39 Sudoeste 0 -- -- 70
2019-04-19 05:00:00 11.5 22 Sudoeste 30 Sudoeste 0 -- -- 70
2019-04-19 04:00:00 13.1 14 Sur 31 Sudeste 0 -- -- 59
2019-04-19 03:00:00 12.7 13 Sur 29 Sudeste 0 -- -- 60
2019-04-19 02:00:00 13.9 17 Sudeste 37 Sudeste 0.2 -- -- 54
2019-04-19 01:00:00 15 12 Sudeste 33 Sudeste 0 -- -- 47
2019-04-19 00:00:00 15 10 Sudeste 34 Sur 0 -- -- 52
2019-04-18 23:00:00 15.6 18 Sudeste 30 Sudeste 0 -- -- 53
2019-04-18 22:00:00 15.5 15 Sur 28 Sur 0 -- -- 54
2019-04-18 21:00:00 15.7 2 Nordeste 19 Sudeste 0 -- -- 52
2019-04-18 20:00:00 16.4 8 Sudeste 30 Sudeste 0 -- -- 50
2019-04-18 19:00:00 16.7 17 Sudeste 38 Sur 0 -- -- 49
2019-04-18 18:00:00 17.2 23 Sur 37 Sur 0 -- -- 49
2019-04-18 17:00:00 17.9 19 Sudeste 53 Sudeste 0 -- -- 47
2019-04-18 16:00:00 19.6 20 Sudeste 44 Este 0 -- -- 47
2019-04-18 15:00:00 20.4 15 Sudoeste 43 Sudoeste 0 -- -- 48
2019-04-18 14:00:00 18.6 26 Sudoeste 46 Sur 0 -- -- 54
2019-04-18 13:00:00 15.7 17 Sudoeste 30 Sudoeste 0 -- -- 67
2019-04-18 12:00:00 12.1 5 Oeste 14 Sur 0 -- -- 82
2019-04-18 11:00:00 12.4 9 Sur 25 Sur 0 -- -- 73
2019-04-18 10:00:00 12.8 14 Sudoeste 30 Sudoeste 0 -- -- 71
2019-04-18 09:00:00 11.5 18 Sur 26 Sur 0 -- -- 73
2019-04-18 08:00:00 10 16 Sur 21 Sur 0 -- -- 78
2019-04-18 07:00:00 9.5 4 Nordeste 8 Oeste 0 -- -- 78
2019-04-18 06:00:00 10 12 Sur 20 Sur 0 -- -- 77
2019-04-18 05:00:00 11 15 Sur 21 Sur 0 -- -- 70
2019-04-18 04:00:00 11.3 10 Sur 22 Sur 0 -- -- 68
2019-04-18 03:00:00 12.5 14 Sur 31 Sudoeste 0 -- -- 62
2019-04-18 02:00:00 12.6 4 Sudoeste 12 Sur 0 -- -- 63
2019-04-18 01:00:00 13.9 4 Noroeste 39 Sur 0 -- -- 60
2019-04-18 00:00:00 14.4 14 Sudoeste 30 Sur 0 -- -- 62
2019-04-17 23:00:00 15.7 12 Sur 23 Sur 0 -- -- 61
2019-04-17 22:00:00 15.6 12 Sur 15 Sur 0 -- -- 64
2019-04-17 21:00:00 17.1 7 Sur 20 Sudoeste 0 -- -- 57
2019-04-17 20:00:00 18.8 8 Sur 26 Sur 0 -- -- 54
2019-04-17 19:00:00 20.1 11 Sudeste 31 Sudeste 0 -- -- 48
2019-04-17 18:00:00 20.7 14 Sur 36 Sudeste 0 -- -- 46
2019-04-17 17:00:00 20.9 17 Sudeste 42 Sur 0 -- -- 44
2019-04-17 16:00:00 21.9 26 Sur 43 Sur 0 -- -- 42
2019-04-17 15:00:00 20.4 12 Sudeste 34 Sudeste 0 -- -- 46
2019-04-17 14:00:00 19 15 Sudeste 39 Sudeste 0 -- -- 49
2019-04-17 13:00:00 18.7 21 Sudeste 45 Sudeste 0 -- -- 49
2019-04-17 12:00:00 17 21 Sudeste 37 Sudeste 0 -- -- 51
2019-04-17 11:00:00 14.4 8 Sudoeste 16 Sur 0 -- -- 63
2019-04-17 10:00:00 12.7 2 Este 21 Sur 0 -- -- 69
2019-04-17 09:00:00 12.6 12 Sur 19 Sur 0 -- -- 69
2019-04-17 08:00:00 9.7 8 Sur 14 Sur 0 -- -- 76
2019-04-17 07:00:00 10.1 5 Sur 11 Sur 0 -- -- 71
2019-04-17 06:00:00 10.6 3 Sudoeste 6 Sur 0 -- -- 68
2019-04-17 05:00:00 11 6 Sudeste 18 Sudeste 0 -- -- 67
2019-04-17 04:00:00 11 8 Sur 17 Sudeste 0 -- -- 65
2019-04-17 03:00:00 10.7 3 Sudeste 10 Sudeste 0 -- -- 69
2019-04-17 02:00:00 10.9 5 Sur 15 Sudeste 0 -- -- 71
2019-04-17 01:00:00 11.4 10 Sur 16 Sur 0 -- -- 71
2019-04-17 00:00:00 11.4 4 Noroeste 12 Noroeste 0 -- -- 69
2019-04-16 23:00:00 12.2 7 Noroeste 13 Noroeste 0 -- -- 67
2019-04-16 22:00:00 14.4 5 Noroeste 19 Sur 0 -- -- 59
2019-04-16 21:00:00 15.9 13 Sur 21 Sur 0 -- -- 54
2019-04-16 20:00:00 17.7 14 Sur 19 Sudeste 0 -- -- 47
2019-04-16 19:00:00 18.9 10 Sur 17 Sur 0 -- -- 43
2019-04-16 18:00:00 19.4 11 Sur 24 Sur 0 -- -- 43
2019-04-16 17:00:00 20.5 10 Sudoeste 23 Sur 0 -- -- 45
2019-04-16 16:00:00 20.1 13 Sudoeste 25 Sur 0 -- -- 48
2019-04-16 15:00:00 18.1 4 Norte 10 Norte 0 -- -- 52
2019-04-16 14:00:00 16.7 3 Sudeste 12 Norte 0 -- -- 56
2019-04-16 13:00:00 17.5 5 Nordeste 14 Este 0 -- -- 59
2019-04-16 12:00:00 15.4 5 Nordeste 13 Nordeste 0 -- -- 61
2019-04-16 11:00:00 14.6 8 Nordeste 16 Este 0 -- -- 69
2019-04-16 10:00:00 12.7 6 Norte 13 Oeste 0 -- -- 72
2019-04-16 09:00:00 10.4 7 Noroeste 12 Oeste 0 -- -- 81
2019-04-16 08:00:00 8.1 4 Oeste 9 Sudoeste 0 -- -- 86
2019-04-16 07:00:00 8.8 4 Sur 10 Nordeste 0 -- -- 82
2019-04-16 06:00:00 9.5 4 Noroeste 11 Norte 0 -- -- 84
2019-04-16 05:00:00 9.7 2 Noroeste 11 Sur 0 -- -- 90
2019-04-16 04:00:00 9.8 3 Sur 9 Este 0 -- -- 90
2019-04-16 03:00:00 9.7 4 Este 13 Este 0 -- -- 90
2019-04-16 02:00:00 9.9 8 Sudeste 16 Nordeste 1.2 -- -- 90
2019-04-16 01:00:00 10.5 6 Norte 25 Nordeste 0.2 -- -- 86
2019-04-16 00:00:00 10.6 6 Norte 18 Norte 3.2 -- -- 87
2019-04-15 23:00:00 11.5 13 Noroeste 28 Norte 1.4 -- -- 83
2019-04-15 22:00:00 13.7 3 Sur 25 Oeste 2.2 -- -- 89
2019-04-15 21:00:00 14.9 10 Noroeste 27 Noroeste 0 -- -- 81
2019-04-15 20:00:00 16.5 6 Noroeste 26 Este 1 -- -- 71
2019-04-15 19:00:00 20.8 9 Este 42 Sudeste 0 -- -- 49
2019-04-15 18:00:00 22.3 19 Sudeste 37 Sudeste 0 -- -- 44
2019-04-15 17:00:00 22 18 Sudeste 36 Sudeste 0 -- -- 45
2019-04-15 16:00:00 22.7 13 Sudeste 32 Sudeste 0 -- -- 44
2019-04-15 15:00:00 22.7 9 Sudeste 33 Sudeste 0 -- -- 45
2019-04-15 14:00:00 21.6 17 Sur 33 Sur 0 -- -- 47
2019-04-15 13:00:00 20.1 8 Nordeste 12 Nordeste 0 -- -- 60
2019-04-15 12:00:00 16.4 4 Nordeste 8 Nordeste 0 -- -- 66
2019-04-15 11:00:00 14.1 3 Nordeste 9 Este 0 -- -- 73
2019-04-15 10:00:00 11.7 4 Nordeste 7 Este 0 -- -- 81
2019-04-15 09:00:00 8.4 3 Noroeste 4 Nordeste 0 -- -- 90
2019-04-15 08:00:00 7.7 2 Norte 7 Sudoeste 0 -- -- 90
2019-04-15 07:00:00 8.7 2 Sudoeste 11 Sur 0 -- -- 91
2019-04-15 06:00:00 8.6 5 Sudoeste 8 Sur 0 -- -- 91
2019-04-15 05:00:00 8.8 0 Calma 4 Sudeste 0 -- -- 90
2019-04-15 04:00:00 9.4 0 Calma 8 Sudeste 0 -- -- 89
2019-04-15 03:00:00 10.2 3 Este 7 Sudeste 0 -- -- 86
2019-04-15 02:00:00 10.5 2 Sudeste 6 Sudoeste 0 -- -- 86
2019-04-15 01:00:00 12.4 5 Sudeste 12 Este 0 -- -- 81
2019-04-15 00:00:00 12.8 6 Sudeste 9 Este 0 -- -- 79
2019-04-14 23:00:00 13.1 5 Este 10 Noroeste 0 -- -- 79
2019-04-14 22:00:00 14.3 2 Sur 11 Oeste 0 -- -- 75
2019-04-14 21:00:00 15.4 6 Sudoeste 16 Nordeste 0 -- -- 70
2019-04-14 20:00:00 17.4 7 Norte 25 Norte 0 -- -- 66
2019-04-14 19:00:00 18.4 19 Norte 32 Norte 0 -- -- 60
2019-04-14 18:00:00 19.5 17 Norte 32 Norte 0 -- -- 57
2019-04-14 17:00:00 20.7 17 Norte 32 Norte 0 -- -- 52
2019-04-14 16:00:00 22.1 17 Noroeste 33 Noroeste 0 -- -- 47
2019-04-14 15:00:00 21.6 15 Norte 31 Norte 0 -- -- 47
2019-04-14 14:00:00 21.2 22 Nordeste 35 Nordeste 0 -- -- 46
2019-04-14 13:00:00 20.5 14 Norte 30 Norte 0 -- -- 46
2019-04-14 12:00:00 18.4 10 Norte 19 Nordeste 0 -- -- 45
2019-04-14 11:00:00 13.2 3 Nordeste 7 Nordeste 0 -- -- 59
2019-04-14 10:00:00 9.3 3 Norte 8 Nordeste 0 -- -- 67
2019-04-14 09:00:00 6.6 3 Noroeste 4 Noroeste 0 -- -- 77
2019-04-14 08:00:00 5.4 0 Calma 3 Noroeste 0 -- -- 73
2019-04-14 07:00:00 4.8 0 Calma 3 Noroeste 0 -- -- 79
2019-04-14 06:00:00 4.7 0 Calma 3 Este 0 -- -- 71
2019-04-14 05:00:00 4.7 0 Calma 6 Sudeste 0 -- -- 71
2019-04-14 04:00:00 5.4 2 Norte 8 Sudeste 0 -- -- 65
2019-04-14 03:00:00 5.6 3 Oeste 5 Noroeste 0 -- -- 67
2019-04-14 02:00:00 6.8 0 Calma 6 Sur 0 -- -- 58
2019-04-14 01:00:00 7.7 0 Calma 4 Norte 0 -- -- 57
2019-04-14 00:00:00 9.9 0 Calma 8 Este 0 -- -- 45
2019-04-13 23:00:00 11.8 2 Nordeste 7 Sudeste 0 -- -- 42
2019-04-13 22:00:00 13.8 5 Sudeste 10 Sur 0 -- -- 33
2019-04-13 21:00:00 16.6 3 Sudoeste 10 Norte 0 -- -- 27
2019-04-13 20:00:00 20.2 5 Norte 19 Nordeste 0 -- -- 21
2019-04-13 19:00:00 21.8 8 Norte 21 Nordeste 0 -- -- 18
2019-04-13 18:00:00 22.1 12 Norte 21 Noroeste 0 -- -- 15
2019-04-13 17:00:00 22.3 12 Norte 20 Norte 0 -- -- 14
2019-04-13 16:00:00 22 7 Nordeste 17 Oeste 0 -- -- 16
2019-04-13 15:00:00 21.2 6 Sudoeste 15 Norte 0 -- -- 19
2019-04-13 14:00:00 19.1 4 Noroeste 11 Nordeste 0 -- -- 27
2019-04-13 13:00:00 16.4 5 Nordeste 11 Nordeste 0 -- -- 37
2019-04-13 12:00:00 12.1 5 Noroeste 9 Noroeste 0 -- -- 50
2019-04-13 11:00:00 9.1 4 Norte 8 Nordeste 0 -- -- 60
2019-04-13 10:00:00 6.1 3 Nordeste 8 Este 0 -- -- 67
2019-04-13 09:00:00 3.3 5 Este 9 Este 0 -- -- 77
2019-04-13 08:00:00 -0.1 0 Calma 5 Sudoeste 0 -- -- 90
2019-04-13 07:00:00 0.8 0 Calma 4 Este 0 -- -- 87
2019-04-13 06:00:00 1 2 Sudeste 7 Sudoeste 0 -- -- 86
2019-04-13 05:00:00 1.7 5 Oeste 8 Este 0 -- -- 83
2019-04-13 04:00:00 5.2 6 Sudeste 16 Sudeste 0 -- -- 70
2019-04-13 03:00:00 6.2 5 Sudeste 12 Este 0 -- -- 64
2019-04-13 02:00:00 7 5 Sudeste 10 Sudeste 0 -- -- 61
2019-04-13 01:00:00 8.1 4 Este 17 Este 0 -- -- 59
2019-04-13 00:00:00 8.4 3 Este 13 Oeste 0 -- -- 60
2019-04-12 23:00:00 9.3 4 Oeste 20 Nordeste 0 -- -- 58
2019-04-12 22:00:00 10.2 9 Norte 23 Norte 0 -- -- 55
2019-04-12 21:00:00 11.1 10 Norte 25 Norte 0 -- -- 53
2019-04-12 20:00:00 13.2 13 Norte 35 Norte 0 -- -- 49
2019-04-12 19:00:00 14.7 16 Norte 33 Norte 0 -- -- 46
2019-04-12 18:00:00 15.7 19 Norte 37 Norte 0 -- -- 44
2019-04-12 17:00:00 16.2 19 Norte 41 Norte 0 -- -- 43
2019-04-12 16:00:00 15.8 22 Norte 45 Oeste 0 -- -- 42
2019-04-12 15:00:00 15.9 19 Norte 43 Nordeste 0 -- -- 42
2019-04-12 14:00:00 14.6 27 Norte 44 Nordeste 0 -- -- 45
2019-04-12 13:00:00 13.9 25 Norte 47 Norte 0 -- -- 47
2019-04-12 12:00:00 12.7 21 Norte 45 Norte 0 -- -- 52
2019-04-12 11:00:00 11.8 21 Norte 39 Nordeste 0 -- -- 56
2019-04-12 10:00:00 11 16 Norte 42 Norte 0 -- -- 60
2019-04-12 09:00:00 9.5 19 Norte 36 Norte 0 -- -- 65
2019-04-12 08:00:00 7.7 16 Norte 37 Norte 0 -- -- 74
2019-04-12 07:00:00 7.7 15 Norte 32 Norte 0 -- -- 77
2019-04-12 06:00:00 7.6 10 Noroeste 19 Noroeste 0 -- -- 78
2019-04-12 05:00:00 8 8 Oeste 23 Noroeste 0 -- -- 77
2019-04-12 04:00:00 8 10 Norte 29 Noroeste 0 -- -- 77
2019-04-12 03:00:00 8.1 4 Nordeste 18 Norte 0 -- -- 77
2019-04-12 02:00:00 8.4 9 Norte 24 Norte 0 -- -- 74
2019-04-12 01:00:00 8.4 11 Norte 23 Norte 0 -- -- 74
2019-04-12 00:00:00 8.4 6 Norte 22 Norte 0 -- -- 76
2019-04-11 23:00:00 8.1 5 Oeste 34 Norte 0 -- -- 72
2019-04-11 22:00:00 8.6 17 Noroeste 31 Noroeste 0 -- -- 70
2019-04-11 21:00:00 9.2 17 Norte 37 Norte 0 -- -- 68
2019-04-11 20:00:00 11 13 Noroeste 36 Noroeste 0 -- -- 69
2019-04-11 19:00:00 11.5 17 Norte 32 Norte 0 -- -- 64
2019-04-11 18:00:00 11.5 17 Norte 36 Norte 0 -- -- 62
2019-04-11 17:00:00 11.9 13 Norte 38 Noroeste 0 -- -- 64
2019-04-11 16:00:00 12.1 21 Norte 38 Noroeste 0 -- -- 64
2019-04-11 15:00:00 12.5 19 Norte 38 Norte 0 -- -- 61
2019-04-11 14:00:00 12.2 21 Noroeste 40 Noroeste 0 -- -- 62
2019-04-11 13:00:00 11.4 19 Norte 34 Norte 0 -- -- 64
2019-04-11 12:00:00 9.9 12 Norte 37 Noroeste 0 -- -- 71
2019-04-11 11:00:00 9.6 15 Noroeste 29 Noroeste 0 -- -- 73
2019-04-11 10:00:00 8.8 17 Noroeste 32 Noroeste 0 -- -- 76
2019-04-11 09:00:00 8 12 Noroeste 22 Noroeste 0 -- -- 76
2019-04-11 08:00:00 7.1 14 Noroeste 24 Norte 0 -- -- 78
2019-04-11 07:00:00 7.2 10 Noroeste 18 Noroeste 0 -- -- 79
2019-04-11 06:00:00 6.9 7 Norte 17 Norte 0 -- -- 81
2019-04-11 05:00:00 7.8 12 Noroeste 24 Noroeste 0 -- -- 78
2019-04-11 04:00:00 7.3 12 Noroeste 22 Noroeste 0 -- -- 79
2019-04-11 03:00:00 7.6 15 Noroeste 24 Noroeste 0 -- -- 80
2019-04-11 02:00:00 7.5 11 Noroeste 19 Noroeste 0 -- -- 80
2019-04-11 01:00:00 7.8 12 Noroeste 21 Noroeste 0 -- -- 78
2019-04-11 00:00:00 7.7 13 Noroeste 22 Noroeste 0 -- -- 75
2019-04-10 23:00:00 8.6 9 Norte 30 Norte 0 -- -- 68
2019-04-10 22:00:00 9.4 12 Norte 33 Norte 0 -- -- 66
2019-04-10 21:00:00 9.9 15 Norte 36 Nordeste 0 -- -- 65
2019-04-10 20:00:00 12.4 11 Norte 30 Noroeste 0 -- -- 58
2019-04-10 19:00:00 13.2 18 Norte 36 Noroeste 0 -- -- 52
2019-04-10 18:00:00 13.9 26 Norte 42 Norte 0 -- -- 53
2019-04-10 17:00:00 14.4 21 Norte 43 Norte 0 -- -- 53
2019-04-10 16:00:00 14.5 23 Norte 45 Norte 0 -- -- 54
2019-04-10 15:00:00 14.3 19 Norte 40 Noroeste 0 -- -- 54
2019-04-10 14:00:00 13.7 18 Norte 42 Noroeste 0 -- -- 60
2019-04-10 13:00:00 12.5 17 Norte 37 Noroeste 0 -- -- 64
2019-04-10 12:00:00 10.9 16 Noroeste 30 Noroeste 0 -- -- 73
2019-04-10 11:00:00 10 12 Noroeste -- -- -- -- -- 73
2019-04-10 10:00:00 -- -- -- -- -- -- -- -- --
2019-04-10 09:00:00 -- -- -- -- -- -- -- -- --
2019-04-10 08:00:00 -- -- -- -- -- -- -- -- --
2019-04-10 07:00:00 -- -- -- -- -- -- -- -- --
2019-04-10 06:00:00 -- -- -- -- -- -- -- -- --
2019-04-10 05:00:00 -- -- -- -- -- -- -- -- --
2019-04-10 04:00:00 -- -- -- -- -- -- -- -- --
2019-04-10 03:00:00 -- -- -- -- -- -- -- -- --
2019-04-10 02:00:00 -- -- -- -- -- -- -- -- --
2019-04-10 01:00:00 -- -- -- -- -- -- -- -- --
2019-04-10 00:00:00 -- -- -- -- -- -- -- -- --
2019-04-09 23:00:00 -- -- -- -- -- -- -- -- --
2019-04-09 22:00:00 -- -- -- -- -- -- -- -- --
2019-04-09 21:00:00 -- -- -- -- -- -- -- -- --
2019-04-09 20:00:00 -- -- -- -- -- -- -- -- --
2019-04-09 19:00:00 -- -- -- -- -- -- -- -- --
2019-04-09 18:00:00 -- -- -- -- -- -- -- -- --
2019-04-09 17:00:00 -- 6 Sudoeste 17 Noroeste 0 -- -- --
2019-04-09 16:00:00 14.8 8 Noroeste 23 Noroeste 0 -- -- 48
2019-04-09 15:00:00 15.2 13 Noroeste 30 Oeste 0 -- -- 46
2019-04-09 14:00:00 14.6 15 Noroeste 27 Noroeste 0 -- -- 50
2019-04-09 13:00:00 14.5 5 Noroeste 15 Noroeste 0 -- -- 52
2019-04-09 12:00:00 10.9 4 Nordeste 9 Norte 0 -- -- 72
2019-04-09 11:00:00 6.9 5 Nordeste 8 Nordeste 0 -- -- 96
2019-04-09 10:00:00 4.1 4 Nordeste 10 Este 0 -- -- 96
2019-04-09 09:00:00 3.1 2 Este 5 Oeste 0 -- -- 96
2019-04-09 08:00:00 2 4 Oeste 17 Este 0 -- -- 95
2019-04-09 07:00:00 2.6 4 Este 9 Este 0 -- -- 95
2019-04-09 06:00:00 3.2 6 Sudeste 10 Sudeste 0 -- -- 94
2019-04-09 05:00:00 4 4 Sur 8 Oeste 0 -- -- 93
2019-04-09 04:00:00 4.6 4 Sudeste 7 Sur 0 -- -- 90
2019-04-09 03:00:00 5.5 2 Sudoeste 5 Oeste 0 -- -- 88
2019-04-09 02:00:00 6.1 3 Sudoeste 6 Sudoeste 0 -- -- 87
2019-04-09 01:00:00 7.4 2 Sudeste 9 Este 0 -- -- 83
2019-04-09 00:00:00 7.7 5 Sudeste 7 Este 0 -- -- 82
2019-04-08 23:00:00 8.7 5 Este 18 Sudeste 0 -- -- 78
2019-04-08 22:00:00 8.8 9 Sudeste 10 Sudeste 0 -- -- 78
2019-04-08 21:00:00 10.8 3 Oeste 12 Norte 0 -- -- 70
2019-04-08 20:00:00 13.1 7 Norte 18 Norte 0 -- -- 62
2019-04-08 19:00:00 13.9 12 Norte 26 Norte 0 -- -- 60
2019-04-08 18:00:00 14.2 9 Norte 22 Norte 0 -- -- 65
2019-04-08 17:00:00 14.6 10 Nordeste 21 Norte 0 -- -- 67
2019-04-08 16:00:00 14 4 Sudeste 8 Este 0 -- -- 71
2019-04-08 15:00:00 13.1 3 Norte 12 Nordeste 0 -- -- 71
2019-04-08 14:00:00 13.2 5 Nordeste 13 Nordeste 0 -- -- 75
2019-04-08 13:00:00 10.4 2 Este 8 Este 0 -- -- 83
2019-04-08 12:00:00 9.1 3 Este 5 Este 0.2 -- -- 87
2019-04-08 11:00:00 7.8 4 Noroeste 6 Noroeste 0 -- -- 90
2019-04-08 10:00:00 7.1 2 Noroeste 4 Oeste 0.2 -- -- 91
2019-04-08 09:00:00 6.7 2 Sudoeste 7 Oeste 0.8 -- -- 92
2019-04-08 08:00:00 6.3 3 Sudoeste 10 Oeste 0.2 -- -- 92
2019-04-08 07:00:00 6.2 5 Oeste 6 Oeste 0 -- -- 91
2019-04-08 06:00:00 6.3 2 Oeste 9 Sudoeste 0.2 -- -- 90
2019-04-08 05:00:00 6.2 7 Sur 11 Sudoeste 0 -- -- 89
2019-04-08 04:00:00 6 2 Nordeste 8 Sudoeste 0 -- -- 89
2019-04-08 03:00:00 6 2 Oeste 8 Noroeste 0 -- -- 86
2019-04-08 02:00:00 6.2 2 Este 8 Sudoeste 0 -- -- 84
2019-04-08 01:00:00 6.1 6 Oeste 12 Oeste 0 -- -- 83
2019-04-08 00:00:00 6.3 5 Oeste 6 Oeste 0 -- -- 82
2019-04-07 23:00:00 7.3 4 Oeste 6 Oeste 0 -- -- 77
2019-04-07 22:00:00 7.7 4 Sudoeste 10 Sur 0 -- -- 74
2019-04-07 21:00:00 9 8 Sur 10 Sur 0 -- -- 71
2019-04-07 20:00:00 11.4 6 Este 14 Nordeste 0 -- -- 61
2019-04-07 19:00:00 12.7 12 Nordeste 19 Nordeste 0 -- -- 58
2019-04-07 18:00:00 13.1 11 Nordeste 19 Nordeste 0 -- -- 57
2019-04-07 17:00:00 12.3 4 Nordeste 16 Nordeste 0 -- -- 56
2019-04-07 16:00:00 12 4 Nordeste 13 Nordeste 0 -- -- 59
2019-04-07 15:00:00 11.9 7 Norte 19 Oeste 0 -- -- 62
2019-04-07 14:00:00 10.6 8 Noroeste 18 Oeste 0 -- -- 64
2019-04-07 13:00:00 9.9 8 Noroeste 17 Noroeste 0 -- -- 66
2019-04-07 12:00:00 8.7 14 Noroeste 21 Noroeste 0 -- -- 70
2019-04-07 11:00:00 8.5 8 Noroeste 22 Oeste 0 -- -- 75
2019-04-07 10:00:00 7.8 14 Noroeste 24 Noroeste 0 -- -- 78
2019-04-07 09:00:00 5.5 6 Oeste 12 Oeste 0 -- -- 92
2019-04-07 08:00:00 5 5 Sudoeste 9 Sudoeste 0 -- -- 92
2019-04-07 07:00:00 5.2 3 Oeste 9 Oeste 0 -- -- 90
2019-04-07 06:00:00 5 3 Oeste 9 Sur 0 -- -- 91
2019-04-07 05:00:00 5.2 3 Sudoeste 14 Sur 0 -- -- 91
2019-04-07 04:00:00 5.4 8 Sur 16 Oeste 3 -- -- 90
2019-04-07 03:00:00 6.3 4 Oeste 19 Oeste 0 -- -- 79
2019-04-07 02:00:00 6.3 6 Oeste 12 Oeste 0 -- -- 79
2019-04-07 01:00:00 6.4 6 Oeste 16 Sur 0 -- -- 78
2019-04-07 00:00:00 6.8 5 Sur 13 Oeste 0 -- -- 77
2019-04-06 23:00:00 6.9 5 Oeste 32 Oeste 0 -- -- 72
2019-04-06 22:00:00 8.1 15 Sur 21 Sur 0 -- -- 70
2019-04-06 21:00:00 8.7 16 Sur 36 Sur 0 -- -- 65
2019-04-06 20:00:00 9.8 20 Sur 33 Sur 0 -- -- 65
2019-04-06 19:00:00 11.3 19 Sur 33 Sudoeste 0 -- -- 59
2019-04-06 18:00:00 11.1 24 Sudoeste 41 Sudoeste 0 -- -- 59
2019-04-06 17:00:00 12.6 19 Sur 36 Sur 0 -- -- 56
2019-04-06 16:00:00 12.9 19 Sur 37 Sudoeste 0 -- -- 57
2019-04-06 15:00:00 10 23 Sur 33 Sur 0 -- -- 67
2019-04-06 14:00:00 12.5 20 Sur 33 Sur 0 -- -- 57
2019-04-06 13:00:00 12.2 16 Sur 28 Sudeste 0 -- -- 58
2019-04-06 12:00:00 10.4 13 Sur 23 Sur 0 -- -- 73
2019-04-06 11:00:00 8.2 4 Nordeste 8 Nordeste 0 -- -- 81
2019-04-06 10:00:00 5.3 4 Este 8 Norte 0 -- -- 97
2019-04-06 09:00:00 3.7 3 Noroeste 8 Sur 0 -- -- 95
2019-04-06 08:00:00 3.4 7 Sur 10 Sur 0 -- -- 95
2019-04-06 07:00:00 3.9 0 Calma 5 Nordeste 0 -- -- 94
2019-04-06 06:00:00 4 2 Este 5 Este 0 -- -- 94
2019-04-06 05:00:00 4.1 3 Oeste 5 Sudoeste 0 -- -- 92
2019-04-06 04:00:00 4.1 2 Sudoeste 6 Sudoeste 0 -- -- 91
2019-04-06 03:00:00 4.2 3 Sudoeste 9 Sur 0 -- -- 92
2019-04-06 02:00:00 4.3 4 Sudeste 13 Este 0 -- -- 91
2019-04-06 01:00:00 4.4 8 Este 13 Este 0 -- -- 93
2019-04-06 00:00:00 4.5 5 Sudeste 12 Oeste 1.8 -- -- 92
2019-04-05 23:00:00 4.6 7 Oeste 29 Oeste 4.4 -- -- 89
2019-04-05 22:00:00 6 16 Oeste 35 Noroeste 0.2 -- -- 80
2019-04-05 21:00:00 7.5 8 Este 34 Este 0 -- -- 75
2019-04-05 20:00:00 8.2 17 Este 34 Este 0 -- -- 72
2019-04-05 19:00:00 11.3 14 Sudeste 33 Sur 0 -- -- 61
2019-04-05 18:00:00 10.4 15 Sur 31 Sur 0 -- -- 69
2019-04-05 17:00:00 11.4 23 Sur 39 Sur 0 -- -- 62
2019-04-05 16:00:00 11.7 20 Sudeste 38 Sur 0 -- -- 58
2019-04-05 15:00:00 11.6 12 Sudeste 39 Sudeste 0 -- -- 64
2019-04-05 14:00:00 10.7 15 Sur 37 Sudeste 0.2 -- -- 70
2019-04-05 13:00:00 10.6 19 Sur 38 Sur 0 -- -- 67
2019-04-05 12:00:00 10.7 21 Sudeste 36 Sur 0 -- -- 68
2019-04-05 11:00:00 8.8 11 Sudeste 25 Sudeste 0 -- -- 78
2019-04-05 10:00:00 7.1 7 Este 22 Sudeste 1 -- -- 83
2019-04-05 09:00:00 7.6 8 Sudeste 29 Sudeste 0 -- -- 72
2019-04-05 08:00:00 7.9 8 Este 22 Sudeste 0 -- -- 66
2019-04-05 07:00:00 8.9 10 Sudeste 26 Sudeste 0 -- -- 58
2019-04-05 06:00:00 9.4 9 Sudeste 27 Sur 0 -- -- 52
2019-04-05 05:00:00 9.7 6 Sudeste 19 Este 0 -- -- 44
2019-04-05 04:00:00 8 6 Noroeste 18 Oeste 0 -- -- 46
2019-04-05 03:00:00 9.4 3 Sudoeste 30 Sudeste 0 -- -- 41
2019-04-05 02:00:00 8.6 5 Noroeste 18 Nordeste 0 -- -- 43
2019-04-05 01:00:00 8.3 2 Oeste 12 Este 0 -- -- 46
2019-04-05 00:00:00 8.1 3 Oeste 13 Sur 0 -- -- 52
2019-04-04 23:00:00 8.5 6 Oeste 9 Sudoeste 0 -- -- 53
2019-04-04 22:00:00 9 4 Sudoeste 8 Sudoeste 0 -- -- 50
2019-04-04 21:00:00 10.2 3 Este 7 Sudeste 0 -- -- 45
2019-04-04 20:00:00 11.5 4 Sudeste 21 Sudeste 0 -- -- 40
2019-04-04 19:00:00 12.9 11 Sur 22 Sur 0 -- -- 37
2019-04-04 18:00:00 13.5 12 Sur 26 Sur 0 -- -- 37
2019-04-04 17:00:00 12.8 8 Sur 27 Sur 0 -- -- 38
2019-04-04 16:00:00 12.4 5 Oeste 16 Norte 0 -- -- 40
2019-04-04 15:00:00 10.5 8 Noroeste 14 Noroeste 0 -- -- 44
2019-04-04 14:00:00 9.6 4 Noroeste 19 Oeste 0 -- -- 47
2019-04-04 13:00:00 9 11 Noroeste 26 Noroeste 0 -- -- 54
2019-04-04 12:00:00 9 5 Oeste 14 Norte 0 -- -- 52
2019-04-04 11:00:00 6.4 5 Norte 11 Noroeste 0 -- -- 63
2019-04-04 10:00:00 2.5 4 Nordeste 8 Este 0 -- -- 83
2019-04-04 09:00:00 0.5 3 Nordeste 7 Oeste 0 -- -- 90
2019-04-04 08:00:00 -1.6 0 Calma 8 Sur 0 -- -- 91
2019-04-04 07:00:00 -1.4 5 Sudoeste 8 Sudoeste 0 -- -- 90
2019-04-04 06:00:00 -0.3 4 Oeste 11 Sur 0 -- -- 90
2019-04-04 05:00:00 -1 2 Este 10 Sur 0 -- -- 87
2019-04-04 04:00:00 -0.8 3 Sudeste 9 Sudoeste 0 -- -- 85
2019-04-04 03:00:00 -0.1 5 Sur 10 Este 0 -- -- 81
2019-04-04 02:00:00 0.5 5 Sur 9 Noroeste 0 -- -- 76
2019-04-04 01:00:00 2.3 5 Oeste 17 Oeste 0 -- -- 70
2019-04-04 00:00:00 2.7 7 Oeste 18 Oeste 0 -- -- 66
2019-04-03 23:00:00 2.9 6 Sur 28 Oeste 0 -- -- 68
2019-04-03 22:00:00 4.1 4 Oeste 9 Norte 0 -- -- 66
2019-04-03 21:00:00 5.4 5 Nordeste 20 Noroeste 0 -- -- 64
2019-04-03 20:00:00 7.7 14 Noroeste 29 Noroeste 0 -- -- 50
2019-04-03 19:00:00 7.4 10 Noroeste 29 Noroeste 0 -- -- 59
2019-04-03 18:00:00 8.3 15 Norte 30 Noroeste 0 -- -- 58
2019-04-03 17:00:00 7.9 19 Noroeste 42 Norte 0 -- -- 64
2019-04-03 16:00:00 10.1 12 Noroeste 30 Noroeste 0 -- -- 51
2019-04-03 15:00:00 9.9 8 Norte 19 Noroeste 0 -- -- 59
2019-04-03 14:00:00 9.3 6 Norte 22 Noroeste 0 -- -- 61
2019-04-03 13:00:00 8.5 10 Noroeste 21 Norte 0 -- -- 68
2019-04-03 12:00:00 7.6 9 Nordeste 17 Nordeste 0.2 -- -- 79
2019-04-03 11:00:00 7.4 8 Nordeste 12 Nordeste 0 -- -- 81
2019-04-03 10:00:00 7.3 6 Nordeste 10 Nordeste 0 -- -- 82
2019-04-03 09:00:00 6.9 6 Nordeste 15 Nordeste 0 -- -- 84
2019-04-03 08:00:00 6.7 8 Este 16 Nordeste 0 -- -- 83
2019-04-03 07:00:00 7 8 Nordeste 13 Nordeste 0 -- -- 82
2019-04-03 06:00:00 7.4 4 Noroeste 15 Nordeste 0 -- -- 84
2019-04-03 05:00:00 7.5 4 Este 10 Noroeste 1.4 -- -- 86
2019-04-03 04:00:00 8.5 6 Norte 14 Norte 0.2 -- -- 77
2019-04-03 03:00:00 9.3 4 Nordeste 14 Nordeste 0 -- -- 73
2019-04-03 02:00:00 9.7 8 Nordeste 12 Nordeste 0 -- -- 73
2019-04-03 01:00:00 9.9 6 Nordeste 13 Norte 0 -- -- 70
2019-04-03 00:00:00 10 3 Norte 9 Norte 0 -- -- 67
2019-04-02 23:00:00 10.4 6 Nordeste 15 Norte 0 -- -- 65
2019-04-02 22:00:00 10.4 7 Nordeste 14 Nordeste 0 -- -- 64
2019-04-02 21:00:00 11.4 8 Este 23 Nordeste 0 -- -- 63
2019-04-02 20:00:00 14.4 8 Norte 27 Nordeste 0 -- -- 54
2019-04-02 19:00:00 16.3 17 Nordeste 26 Norte 0 -- -- 49
2019-04-02 18:00:00 17.7 11 Noroeste 26 Noroeste 0 -- -- 39
2019-04-02 17:00:00 18.3 9 Norte 28 Noroeste 0 -- -- 38
2019-04-02 16:00:00 17.9 15 Norte 26 Norte 0 -- -- 41
2019-04-02 15:00:00 17.3 11 Norte 23 Nordeste 0 -- -- 42
2019-04-02 14:00:00 17.6 11 Norte 22 Nordeste 0 -- -- 47
2019-04-02 13:00:00 16.3 6 Nordeste 13 Nordeste 0 -- -- 58
2019-04-02 12:00:00 14.5 3 Nordeste 9 Nordeste 0 -- -- 67
2019-04-02 11:00:00 11.2 3 Este 10 Este 0 -- -- 91
2019-04-02 10:00:00 9.3 3 Nordeste 5 Este 0 -- -- 97
2019-04-02 09:00:00 7.9 3 Noroeste 5 Noroeste 0 -- -- 97
2019-04-02 08:00:00 7.1 4 Sur 8 Noroeste 0 -- -- 97
2019-04-02 07:00:00 6.9 0 Calma 4 Oeste 0 -- -- 96
2019-04-02 06:00:00 6.7 4 Oeste 7 Sudoeste 0 -- -- 95
2019-04-02 05:00:00 6.7 0 Calma 6 Sudeste 0 -- -- 94
2019-04-02 04:00:00 7.5 5 Sur 8 Sur 0 -- -- 93
2019-04-02 03:00:00 8.6 2 Este 4 Sudeste 0 -- -- 92
2019-04-02 02:00:00 9.5 0 Calma 8 Sur 0 -- -- 90
2019-04-02 01:00:00 9.9 5 Sudeste 6 Sudeste 0 -- -- 88
2019-04-02 00:00:00 11 3 Oeste 9 Sur 0 -- -- 86
2019-04-01 23:00:00 11.2 6 Sudoeste 17 Sur 0 -- -- 86
2019-04-01 22:00:00 12.4 8 Sur 18 Sudoeste 0 -- -- 81
2019-04-01 21:00:00 12.9 6 Sur 8 Sudoeste 0 -- -- 79
2019-04-01 20:00:00 13.8 2 Sudeste 8 Este 0 -- -- 74
2019-04-01 19:00:00 14.3 6 Nordeste 13 Este 0 -- -- 72
2019-04-01 18:00:00 14.1 7 Este 14 Este 0 -- -- 73
2019-04-01 17:00:00 13.8 7 Este 12 Nordeste 0.2 -- -- 76
2019-04-01 16:00:00 13.3 4 Nordeste 11 Nordeste 0 -- -- 76
2019-04-01 15:00:00 13.4 8 Noroeste 17 Sudoeste 0 -- -- 77
2019-04-01 14:00:00 12.2 6 Sur 12 Sur 0 -- -- 84
2019-04-01 13:00:00 10.7 4 Noroeste 9 Noroeste 0 -- -- 86
2019-04-01 12:00:00 10.1 2 Norte 6 Nordeste 0 -- -- 88
2019-04-01 11:00:00 9.3 3 Nordeste 5 Norte 0 -- -- 88
2019-04-01 10:00:00 8.5 0 Calma 4 Sudeste 0 -- -- 91
2019-04-01 09:00:00 7.9 2 Sur 3 Sur 0 -- -- 93
2019-04-01 08:00:00 7.5 0 Calma 3 Este 0 -- -- 93
2019-04-01 07:00:00 7.5 0 Calma 3 Sudoeste 0.4 -- -- 92
2019-04-01 06:00:00 7.5 4 Sudeste 5 Sudeste 0.8 -- -- 92
2019-04-01 05:00:00 7.8 3 Sudeste 6 Sur 1 -- -- 91
2019-04-01 04:00:00 7.8 4 Sur 17 Sur 1.4 -- -- 90
2019-04-01 03:00:00 8.1 10 Sur 21 Sur 0.4 -- -- 87
2019-04-01 02:00:00 8.9 10 Sur 14 Sur 0 -- -- 77
2019-04-01 01:00:00 9.3 8 Sur 12 Sur 0 -- -- 73
2019-04-01 00:00:00 9.8 8 Sudoeste 10 Sudoeste 0 -- -- 68
2019-03-31 23:00:00 10.1 6 Sur 12 Sur 0 -- -- 68
2019-03-31 22:00:00 10.7 8 Sur 13 Sur 0 -- -- 63
2019-03-31 21:00:00 11.4 9 Sudoeste 19 Sudoeste 0 -- -- 62
2019-03-31 20:00:00 12.3 14 Sur 32 Sur 0 -- -- 61
2019-03-31 19:00:00 13.2 19 Sur 33 Sur 0 -- -- 55
2019-03-31 18:00:00 14.5 17 Sudoeste 30 Sudoeste 0 -- -- 52
2019-03-31 17:00:00 15.6 17 Sudoeste 33 Sudoeste 0 -- -- 52
2019-03-31 16:00:00 15.9 15 Sur 27 Sur 0 -- -- 54
2019-03-31 15:00:00 16.5 15 Sur 26 Sur 0 -- -- 52
2019-03-31 14:00:00 16.7 13 Sur 22 Sur 0 -- -- 51
2019-03-31 13:00:00 15.2 7 Noroeste 18 Sudoeste 0 -- -- 55
2019-03-31 12:00:00 11.9 5 Nordeste 10 Nordeste 0 -- -- 60
2019-03-31 11:00:00 8.4 4 Nordeste 7 Nordeste 0 -- -- 68
2019-03-31 10:00:00 4.9 2 Nordeste 4 Nordeste 0 -- -- 79
2019-03-31 09:00:00 2.9 0 Calma 4 Nordeste 0 -- -- 84
2019-03-31 08:00:00 2.7 6 Sudeste 9 Sudeste 0 -- -- 85
2019-03-31 07:00:00 1.9 6 Sudoeste 9 Sudoeste 0 -- -- 85
2019-03-31 06:00:00 3.2 3 Nordeste 4 Sudeste 0 -- -- 80
2019-03-31 05:00:00 4 3 Sudeste 7 Sudeste 0 -- -- 76
2019-03-31 03:00:00 5.8 5 Sudoeste 8 Sur 0 -- -- 67
2019-03-31 01:00:00 5.9 4 Sur 6 Sur 0 -- -- 66
2019-03-31 00:00:00 7.5 2 Este 11 Sur 0 -- -- 61
2019-03-30 23:00:00 8.1 8 Sudoeste 10 Sudoeste 0 -- -- 58
2019-03-30 22:00:00 9.3 5 Oeste 9 Oeste 0 -- -- 59
2019-03-30 21:00:00 11.1 4 Sudoeste 19 Sur 0 -- -- 53
2019-03-30 20:00:00 13 17 Sur 19 Sur 0 -- -- 47
2019-03-30 19:00:00 16.3 10 Sur 22 Sudoeste 0 -- -- 39
2019-03-30 18:00:00 18 15 Sur 24 Sudoeste 0 -- -- 34
2019-03-30 17:00:00 19.1 14 Sudoeste 29 Sur 0 -- -- 32
2019-03-30 16:00:00 19.5 14 Sudoeste 29 Sudoeste 0 -- -- 31
2019-03-30 15:00:00 19.4 18 Sudoeste 31 Sur 0 -- -- 32
2019-03-30 14:00:00 18.7 15 Sudoeste 30 Sudoeste 0 -- -- 35
2019-03-30 13:00:00 17.8 17 Sur 32 Sur 0 -- -- 37
2019-03-30 12:00:00 16.6 23 Sur 37 Sur 0 -- -- 38
2019-03-30 11:00:00 15.1 15 Sur 28 Sur 0 -- -- 43
2019-03-30 10:00:00 10.1 3 Nordeste 7 Este 0 -- -- 60
2019-03-30 09:00:00 6.7 3 Nordeste 6 Este 0 -- -- 66
2019-03-30 08:00:00 4.3 2 Norte 6 Norte 0 -- -- 74
2019-03-30 07:00:00 2.3 0 Calma 4 Nordeste 0 -- -- 76
2019-03-30 06:00:00 3.2 0 Calma 5 Sudoeste 0 -- -- 72
2019-03-30 05:00:00 4 0 Calma 8 Sudoeste 0 -- -- 68
2019-03-30 04:00:00 5 3 Sur 9 Sur 0 -- -- 65
2019-03-30 03:00:00 5.8 6 Sudoeste 10 Sudoeste 0 -- -- 65
2019-03-30 02:00:00 6.8 3 Noroeste 7 Sudeste 0 -- -- 62
2019-03-30 01:00:00 8.8 4 Sudeste 8 Sur 0 -- -- 58
2019-03-30 00:00:00 9 3 Noroeste 14 Sudeste 0 -- -- 57
2019-03-29 23:00:00 9.9 3 Noroeste 7 Norte 0 -- -- 54
2019-03-29 22:00:00 10.8 6 Noroeste 10 Noroeste 0 -- -- 49
2019-03-29 21:00:00 12.7 4 Noroeste 13 Oeste 0 -- -- 43
2019-03-29 20:00:00 13.9 4 Sudeste 22 Sudeste 0 -- -- 39
2019-03-29 19:00:00 16.4 14 Sudeste 30 Sudeste 0 -- -- 34
2019-03-29 18:00:00 17.7 12 Sudeste 33 Sudeste 0 -- -- 33
2019-03-29 17:00:00 18.7 23 Sur 39 Sur 0 -- -- 31
2019-03-29 16:00:00 18.7 18 Sudeste 40 Sur 0 -- -- 31
2019-03-29 15:00:00 18.7 21 Sur 39 Sudeste 0 -- -- 29
2019-03-29 14:00:00 17.8 20 Sudeste 40 Sur 0 -- -- 31
2019-03-29 13:00:00 17.3 24 Sur 42 Sur 0 -- -- 33
2019-03-29 12:00:00 17.7 23 Sur 36 Sur 0 -- -- 35
2019-03-29 11:00:00 12.7 5 Nordeste 9 Nordeste 0 -- -- 52
2019-03-29 10:00:00 9.3 4 Nordeste 8 Este 0 -- -- 66
2019-03-29 09:00:00 6.1 4 Nordeste 6 Este 0 -- -- 79
2019-03-29 08:00:00 2.1 2 Noroeste 4 Nordeste 0 -- -- 87
2019-03-29 07:00:00 1.7 0 Calma 5 Sudoeste 0 -- -- 88
2019-03-29 06:00:00 1.8 3 Sudoeste 9 Sur 0 -- -- 88
2019-03-29 05:00:00 2.1 2 Noroeste 4 Sudeste 0 -- -- 87
2019-03-29 04:00:00 3.1 0 Calma 6 Sudoeste 0 -- -- 84
2019-03-29 03:00:00 3.7 0 Calma 7 Oeste 0 -- -- 81
2019-03-29 02:00:00 4.8 2 Sur 9 Noroeste 0 -- -- 79
2019-03-29 01:00:00 6.2 0 Calma 8 Sudeste 0 -- -- 72
2019-03-29 00:00:00 7.6 7 Sudeste 11 Este 0 -- -- 68
2019-03-28 23:00:00 9.1 9 Sudeste 15 Este 0 -- -- 63
2019-03-28 22:00:00 9.8 3 Sur 9 Sudeste 0 -- -- 59
2019-03-28 21:00:00 11 6 Sudeste 10 Este 0 -- -- 55
2019-03-28 20:00:00 13.6 4 Nordeste 17 Oeste 0 -- -- 48
2019-03-28 19:00:00 16.1 5 Noroeste 19 Noroeste 0 -- -- 43
2019-03-28 18:00:00 17.9 14 Noroeste 23 Noroeste 0 -- -- 40
2019-03-28 17:00:00 19.6 10 Noroeste 23 Noroeste 0 -- -- 35
2019-03-28 16:00:00 19.6 9 Norte 18 Noroeste 0 -- -- 32
2019-03-28 15:00:00 19.1 6 Noroeste 18 Oeste 0 -- -- 33
2019-03-28 14:00:00 18.4 7 Oeste 14 Noroeste 0 -- -- 35
2019-03-28 13:00:00 16.6 5 Nordeste 9 Nordeste 0 -- -- 40
2019-03-28 12:00:00 14.6 3 Norte 10 Este 0 -- -- 46
2019-03-28 11:00:00 11.7 4 Nordeste 8 Este 0 -- -- 54
2019-03-28 10:00:00 8.3 3 Norte 6 Nordeste 0 -- -- 62
2019-03-28 09:00:00 5.4 4 Nordeste 7 Nordeste 0 -- -- 68
2019-03-28 08:00:00 2.7 0 Calma 3 Norte 0 -- -- 80
2019-03-28 07:00:00 1.2 0 Calma 4 Sudoeste 0 -- -- 83
2019-03-28 06:00:00 1.6 4 Oeste 6 Oeste 0 -- -- 81
2019-03-28 05:00:00 2.6 4 Oeste 13 Sudeste 0 -- -- 77
2019-03-28 04:00:00 6.1 10 Sudeste 15 Sudeste 0 -- -- 68
2019-03-28 03:00:00 6 8 Sudeste 11 Sudeste 0 -- -- 66
2019-03-28 02:00:00 6.9 4 Sur 7 Sudeste 0 -- -- 59
2019-03-28 01:00:00 7.7 3 Sudeste 12 Norte 0 -- -- 56
2019-03-28 00:00:00 8.8 8 Noroeste 14 Noroeste 0 -- -- 53
2019-03-27 23:00:00 9.3 7 Norte 20 Norte 0 -- -- 51
2019-03-27 22:00:00 9.7 7 Norte 21 Norte 0 -- -- 50
2019-03-27 21:00:00 10.4 6 Noroeste 18 Noroeste 0 -- -- 46
2019-03-27 20:00:00 11.4 5 Oeste 31 Norte 0 -- -- 43
2019-03-27 19:00:00 13.7 12 Norte 30 Norte 0 -- -- 36
2019-03-27 18:00:00 16.3 13 Norte 39 Nordeste 0 -- -- 30
2019-03-27 17:00:00 17.6 24 Norte 49 Nordeste 0 -- -- 23
2019-03-27 16:00:00 18.2 24 Norte 48 Nordeste 0 -- -- 22
2019-03-27 15:00:00 19.4 22 Norte 41 Nordeste 0 -- -- 19
2019-03-27 14:00:00 19.2 17 Norte 39 Nordeste 0 -- -- 20
2019-03-27 13:00:00 18.3 12 Norte 23 Nordeste 0 -- -- 23
2019-03-27 12:00:00 15.4 5 Noroeste 11 Oeste 0 -- -- 31
2019-03-27 11:00:00 12.1 4 Nordeste 10 Este 0 -- -- 39
2019-03-27 10:00:00 7.9 4 Nordeste 6 Nordeste 0 -- -- 51
2019-03-27 09:00:00 4 3 Norte 5 Nordeste 0 -- -- 61
2019-03-27 08:00:00 2 0 Calma 4 Nordeste 0 -- -- 70
2019-03-27 07:00:00 -0.4 2 Nordeste 7 Sur 0 -- -- 73
2019-03-27 06:00:00 0.8 3 Sur 7 Sudoeste 0 -- -- 65
2019-03-27 05:00:00 1.5 4 Oeste 11 Noroeste 0 -- -- 63
2019-03-27 04:00:00 3.3 3 Norte 8 Sudoeste 0 -- -- 58
2019-03-27 03:00:00 6.1 2 Oeste 11 Sur 0 -- -- 47
2019-03-27 02:00:00 7.4 4 Sudeste 15 Este 0 -- -- 43
2019-03-27 01:00:00 8.4 8 Este 22 Nordeste 0 -- -- 41
2019-03-27 00:00:00 9 5 Nordeste 26 Nordeste 0 -- -- 39